createdAt,value
2022-11-05T00:01:17.787Z,7.71
2022-11-05T00:04:05.497Z,7.74
2022-11-05T00:06:53.551Z,7.77
2022-11-05T00:09:31.920Z,7.78
2022-11-05T00:12:24.263Z,7.76
2022-11-05T00:15:12.107Z,7.75
2022-11-05T00:17:41.737Z,7.72
2022-11-05T00:20:14.570Z,7.70
2022-11-05T00:23:02.913Z,7.69
2022-11-05T00:25:32.416Z,7.68
2022-11-05T00:28:02.666Z,7.68
2022-11-05T00:30:32.581Z,7.67
2022-11-05T00:33:03.595Z,7.68
2022-11-05T00:35:32.648Z,7.68
2022-11-05T00:38:02.118Z,7.67
2022-11-05T00:40:32.024Z,7.67
2022-11-05T00:43:21.002Z,7.66
2022-11-05T00:45:50.579Z,7.64
2022-11-05T00:48:37.839Z,7.65
2022-11-05T00:51:07.786Z,7.65
2022-11-05T00:53:37.376Z,7.63
2022-11-05T00:56:07.245Z,7.63
2022-11-05T00:58:37.062Z,7.62
2022-11-05T01:01:06.251Z,7.60
2022-11-05T01:03:37.200Z,7.57
2022-11-05T01:06:12.635Z,7.52
2022-11-05T01:08:42.644Z,7.46
2022-11-05T01:11:34.400Z,7.40
2022-11-05T01:14:06.551Z,7.35
2022-11-05T01:16:37.201Z,7.31
2022-11-05T01:19:08.069Z,7.26
2022-11-05T01:21:37.859Z,7.17
2022-11-05T01:24:08.082Z,7.09
2022-11-05T01:26:38.068Z,7.02
2022-11-05T01:29:09.093Z,6.98
2022-11-05T01:31:39.672Z,6.94
2022-11-05T01:34:09.345Z,6.93
2022-11-05T01:36:40.111Z,6.91
2022-11-05T01:39:09.805Z,6.89
2022-11-05T01:41:39.385Z,6.88
2022-11-05T01:44:27.818Z,6.87
2022-11-05T01:46:57.622Z,6.87
2022-11-05T01:49:34.632Z,6.88
2022-11-05T01:52:05.391Z,6.85
2022-11-05T01:54:35.498Z,6.86
2022-11-05T01:57:07.544Z,6.89
2022-11-05T01:59:41.860Z,6.92
2022-11-05T02:02:11.386Z,6.92
2022-11-05T02:04:44.346Z,6.92
2022-11-05T02:07:16.656Z,6.93
2022-11-05T02:10:02.820Z,6.93
2022-11-05T02:12:33.775Z,6.91
2022-11-05T02:15:03.884Z,6.91
2022-11-05T02:17:36.473Z,6.90
2022-11-05T02:20:16.273Z,6.87
2022-11-05T02:22:46.744Z,6.85
2022-11-05T02:25:40.110Z,6.83
2022-11-05T02:28:29.361Z,6.79
2022-11-05T02:31:18.631Z,6.75
2022-11-05T02:33:58.417Z,6.70
2022-11-05T02:36:44.883Z,6.65
2022-11-05T02:39:32.780Z,6.62
2022-11-05T02:42:05.249Z,6.60
2022-11-05T02:44:34.706Z,6.57
2022-11-05T02:47:12.880Z,6.58
2022-11-05T02:49:57.021Z,6.59
2022-11-05T02:52:37.253Z,6.55
2022-11-05T02:55:07.562Z,6.51
2022-11-05T02:57:37.929Z,6.47
2022-11-05T03:00:10.297Z,6.41
2022-11-05T03:02:40.770Z,6.34
2022-11-05T03:05:10.262Z,6.30
2022-11-05T03:07:47.652Z,6.31
2022-11-05T03:10:27.228Z,6.34
2022-11-05T03:13:23.640Z,6.35
2022-11-05T03:15:56.612Z,6.30
2022-11-05T03:18:29.288Z,6.24
2022-11-05T03:21:14.523Z,6.15
2022-11-05T03:24:02.885Z,6.08
2022-11-05T03:26:39.512Z,6.01
2022-11-05T03:29:15.544Z,5.98
2022-11-05T03:31:46.690Z,5.96
2022-11-05T03:34:18.850Z,5.95
2022-11-05T03:36:51.255Z,5.95
2022-11-05T03:39:27.786Z,5.95
2022-11-05T03:41:58.048Z,5.97
2022-11-05T03:44:31.126Z,6.01
2022-11-05T03:47:07.053Z,6.04
2022-11-05T03:49:39.726Z,6.05
2022-11-05T03:52:17.637Z,6.05
2022-11-05T03:54:47.557Z,6.06
2022-11-05T03:57:17.035Z,6.09
2022-11-05T03:59:48.206Z,6.09
2022-11-05T04:02:19.835Z,6.04
2022-11-05T04:04:50.004Z,6.02
2022-11-05T04:07:38.013Z,6.03
2022-11-05T04:10:26.199Z,6.04
2022-11-05T04:13:14.362Z,6.05
2022-11-05T04:16:02.735Z,6.06
2022-11-05T04:18:31.520Z,6.07
2022-11-05T04:21:19.039Z,6.09
2022-11-05T04:24:07.001Z,6.11
2022-11-05T04:26:37.001Z,6.11
2022-11-05T04:29:24.727Z,6.12
2022-11-05T04:31:53.728Z,6.12
2022-11-05T04:34:23.124Z,6.13
2022-11-05T04:36:53.761Z,6.13
2022-11-05T04:39:23.055Z,6.12
2022-11-05T04:41:53.088Z,6.17
2022-11-05T04:44:21.978Z,6.20
2022-11-05T04:46:50.854Z,6.21
2022-11-05T04:49:20.347Z,6.21
2022-11-05T04:51:49.788Z,6.22
2022-11-05T04:54:19.662Z,6.26
2022-11-05T04:56:49.631Z,6.29
2022-11-05T04:59:18.887Z,6.34
2022-11-05T05:01:51.821Z,6.35
2022-11-05T05:04:21.178Z,6.28
2022-11-05T05:06:49.764Z,6.14
2022-11-05T05:09:18.243Z,6.01
2022-11-05T05:11:47.225Z,5.93
2022-11-05T05:14:16.422Z,5.89
2022-11-05T05:16:45.206Z,5.86
2022-11-05T05:19:13.997Z,5.90
2022-11-05T05:21:42.899Z,5.94
2022-11-05T05:24:13.473Z,5.98
2022-11-05T05:26:43.647Z,6.03
2022-11-05T05:29:12.844Z,6.09
2022-11-05T05:31:41.633Z,6.13
2022-11-05T05:34:13.495Z,6.19
2022-11-05T05:36:42.292Z,6.26
2022-11-05T05:39:13.927Z,6.35
2022-11-05T05:41:43.132Z,6.43
2022-11-05T05:44:11.914Z,6.49
2022-11-05T05:46:40.911Z,6.53
2022-11-05T05:49:12.603Z,6.55
2022-11-05T05:51:41.769Z,6.52
2022-11-05T05:54:11.275Z,6.49
2022-11-05T05:56:39.654Z,6.47
2022-11-05T05:59:08.423Z,6.49
2022-11-05T06:01:36.908Z,6.52
2022-11-05T06:04:05.815Z,6.59
2022-11-05T06:06:34.387Z,6.66
2022-11-05T06:09:02.868Z,6.73
2022-11-05T06:11:31.746Z,6.80
2022-11-05T06:14:00.479Z,6.90
2022-11-05T06:16:29.948Z,7.00
2022-11-05T06:18:58.425Z,7.07
2022-11-05T06:21:27.110Z,7.14
2022-11-05T06:23:56.002Z,7.17
2022-11-05T06:26:24.783Z,7.18
2022-11-05T06:28:53.474Z,7.17
2022-11-05T06:31:21.981Z,7.22
2022-11-05T06:33:50.942Z,7.29
2022-11-05T06:36:20.016Z,7.37
2022-11-05T06:38:48.627Z,7.46
2022-11-05T06:41:17.214Z,7.57
2022-11-05T06:43:45.692Z,7.66
2022-11-05T06:46:14.270Z,7.73
2022-11-05T06:48:42.746Z,7.81
2022-11-05T06:51:11.130Z,7.91
2022-11-05T06:53:40.024Z,7.99
2022-11-05T06:56:08.565Z,8.03
2022-11-05T06:58:37.495Z,8.04
2022-11-05T07:01:08.844Z,8.07
2022-11-05T07:03:37.880Z,8.12
2022-11-05T07:06:07.574Z,8.19
2022-11-05T07:08:37.560Z,8.25
2022-11-05T07:11:06.463Z,8.30
2022-11-05T07:13:34.934Z,8.39
2022-11-05T07:16:03.820Z,8.47
2022-11-05T07:18:32.301Z,8.55
2022-11-05T07:21:01.297Z,8.62
2022-11-05T07:23:29.875Z,8.70
2022-11-05T07:25:59.849Z,8.79
2022-11-05T07:28:28.168Z,8.90
2022-11-05T07:30:58.801Z,8.98
2022-11-05T07:33:30.078Z,9.07
2022-11-05T07:36:01.502Z,9.17
2022-11-05T07:38:30.076Z,9.27
2022-11-05T07:41:01.632Z,9.35
2022-11-05T07:43:30.319Z,9.33
2022-11-05T07:45:59.320Z,9.21
2022-11-05T07:48:27.896Z,9.06
2022-11-05T07:50:57.194Z,9.07
2022-11-05T07:53:25.679Z,9.08
2022-11-05T07:55:54.667Z,9.15
2022-11-05T07:58:23.250Z,9.24
2022-11-05T08:00:51.830Z,9.30
2022-11-05T08:03:20.960Z,9.36
2022-11-05T08:05:50.270Z,9.42
2022-11-05T08:08:19.999Z,9.47
2022-11-05T08:10:48.524Z,9.56
2022-11-05T08:13:17.615Z,9.66
2022-11-05T08:15:46.000Z,9.75
2022-11-05T08:18:15.716Z,9.81
2022-11-05T08:20:45.210Z,9.90
2022-11-05T08:23:14.587Z,9.95
2022-11-05T08:25:43.820Z,10.03
2022-11-05T08:28:13.314Z,10.11
2022-11-05T08:30:42.000Z,10.19
2022-11-05T08:33:12.314Z,10.29
2022-11-05T08:35:41.624Z,10.37
2022-11-05T08:38:14.105Z,10.44
2022-11-05T08:40:44.008Z,10.51
2022-11-05T08:43:14.570Z,10.58
2022-11-05T08:45:43.329Z,10.62
2022-11-05T08:48:15.910Z,10.59
2022-11-05T08:50:45.406Z,10.61
2022-11-05T08:53:14.705Z,10.58
2022-11-05T08:55:44.418Z,10.65
2022-11-05T08:58:15.562Z,10.72
2022-11-05T09:00:47.890Z,10.77
2022-11-05T09:03:16.722Z,10.85
2022-11-05T09:05:45.609Z,10.93
2022-11-05T09:08:18.087Z,11.06
2022-11-05T09:10:47.297Z,11.20
2022-11-05T09:13:19.477Z,11.33
2022-11-05T09:15:49.771Z,11.47
2022-11-05T09:18:19.072Z,11.59
2022-11-05T09:20:47.763Z,11.70
2022-11-05T09:23:16.447Z,11.83
2022-11-05T09:25:44.918Z,11.95
2022-11-05T09:28:20.609Z,12.00
2022-11-05T09:30:50.497Z,12.02
2022-11-05T09:33:20.103Z,12.04
2022-11-05T09:35:48.782Z,12.21
2022-11-05T09:38:17.261Z,12.34
2022-11-05T09:40:55.060Z,12.50
2022-11-05T09:43:31.434Z,12.69
2022-11-05T09:46:03.287Z,12.87
2022-11-05T09:48:32.993Z,13.02
2022-11-05T09:51:01.786Z,13.19
2022-11-05T09:53:30.165Z,13.35
2022-11-05T09:56:00.688Z,13.51
2022-11-05T09:58:39.821Z,13.66
2022-11-05T10:01:12.614Z,13.85
2022-11-05T10:03:46.507Z,14.01
2022-11-05T10:06:20.271Z,14.15
2022-11-05T10:09:12.250Z,14.24
2022-11-05T10:12:04.028Z,14.32
2022-11-05T10:14:36.960Z,14.37
2022-11-05T10:17:09.641Z,14.43
2022-11-05T10:19:48.154Z,14.47
2022-11-05T10:22:18.063Z,14.50
2022-11-05T10:24:48.084Z,14.46
2022-11-05T10:27:28.762Z,14.47
2022-11-05T10:29:57.485Z,14.50
2022-11-05T10:32:29.602Z,14.54
2022-11-05T10:35:00.134Z,14.61
2022-11-05T10:37:29.349Z,14.68
2022-11-05T10:39:58.333Z,14.77
2022-11-05T10:42:26.803Z,14.85
2022-11-05T10:44:58.354Z,14.96
2022-11-05T10:47:50.330Z,15.17
2022-11-05T10:50:20.069Z,15.41
2022-11-05T10:52:48.585Z,15.61
2022-11-05T10:55:29.467Z,15.76
2022-11-05T10:58:08.781Z,15.92
2022-11-05T11:00:37.643Z,16.00
2022-11-05T11:03:26.221Z,16.10
2022-11-05T11:06:01.479Z,16.21
2022-11-05T11:08:31.172Z,16.28
2022-11-05T11:11:02.524Z,16.34
2022-11-05T11:13:49.643Z,16.41
2022-11-05T11:16:23.040Z,16.50
2022-11-05T11:19:01.449Z,16.56
2022-11-05T11:21:31.159Z,16.64
2022-11-05T11:24:02.530Z,16.68
2022-11-05T11:26:35.802Z,16.70
2022-11-05T11:29:22.869Z,16.76
2022-11-05T11:31:55.291Z,16.87
2022-11-05T11:34:34.731Z,17.00
2022-11-05T11:37:07.529Z,17.07
2022-11-05T11:39:37.426Z,17.14
2022-11-05T11:42:12.868Z,17.20
2022-11-05T11:44:43.604Z,17.17
2022-11-05T11:47:14.027Z,17.22
2022-11-05T11:49:42.517Z,17.30
2022-11-05T11:52:13.350Z,17.30
2022-11-05T11:54:42.033Z,17.20
2022-11-05T11:57:24.103Z,17.27
2022-11-05T12:00:08.179Z,17.26
2022-11-05T12:03:00.536Z,17.38
2022-11-05T12:05:39.488Z,17.50
2022-11-05T12:08:10.902Z,17.59
2022-11-05T12:10:49.006Z,17.67
2022-11-05T12:13:20.973Z,17.70
2022-11-05T12:15:55.385Z,17.80
2022-11-05T12:18:48.030Z,17.94
2022-11-05T12:21:34.865Z,18.23
2022-11-05T12:24:33.412Z,18.46
2022-11-05T12:27:04.879Z,18.69
2022-11-05T12:29:52.303Z,18.86
2022-11-05T12:32:26.901Z,19.03
2022-11-05T12:35:01.959Z,19.12
2022-11-05T12:37:31.054Z,19.12
2022-11-05T12:40:17.881Z,19.09
2022-11-05T12:42:52.278Z,19.08
2022-11-05T12:45:20.872Z,19.10
2022-11-05T12:47:49.242Z,19.09
2022-11-05T12:50:36.341Z,19.01
2022-11-05T12:53:04.579Z,18.96
2022-11-05T12:55:38.237Z,18.88
2022-11-05T12:58:13.884Z,18.86
2022-11-05T13:00:45.441Z,18.83
2022-11-05T13:03:29.176Z,18.80
2022-11-05T13:06:05.660Z,18.77
2022-11-05T13:08:57.488Z,18.62
2022-11-05T13:11:35.586Z,18.48
2022-11-05T13:14:10.111Z,18.28
2022-11-05T13:17:04.629Z,18.10
2022-11-05T13:19:54.483Z,17.98
2022-11-05T13:22:35.245Z,17.85
2022-11-05T13:25:12.838Z,17.70
2022-11-05T13:27:45.208Z,17.51
2022-11-05T13:30:17.281Z,17.21
2022-11-05T13:32:48.656Z,16.93
2022-11-05T13:35:20.658Z,16.72
2022-11-05T13:38:11.193Z,16.53
2022-11-05T13:40:39.560Z,16.44
2022-11-05T13:43:08.041Z,16.36
2022-11-05T13:45:55.263Z,16.24
2022-11-05T13:48:42.640Z,16.05
2022-11-05T13:51:20.595Z,15.86
2022-11-05T13:53:59.820Z,15.77
2022-11-05T13:56:42.839Z,15.65
2022-11-05T13:59:11.325Z,15.51
2022-11-05T14:01:49.641Z,15.43
2022-11-05T14:04:27.535Z,15.34
2022-11-05T14:07:05.643Z,15.21
2022-11-05T14:09:35.255Z,15.08
2022-11-05T14:12:05.408Z,14.95
2022-11-05T14:14:44.403Z,14.86
2022-11-05T14:17:21.581Z,14.73
2022-11-05T14:19:50.373Z,14.63
2022-11-05T14:22:30.120Z,14.54
2022-11-05T14:24:59.459Z,14.43
2022-11-05T14:27:37.009Z,14.34
2022-11-05T14:30:25.461Z,14.26
2022-11-05T14:33:02.952Z,14.20
2022-11-05T14:35:38.086Z,14.14
2022-11-05T14:38:18.246Z,14.09
2022-11-05T14:40:47.855Z,14.04
2022-11-05T14:43:19.198Z,13.97
2022-11-05T14:46:04.368Z,13.92
2022-11-05T14:48:41.344Z,13.86
2022-11-05T14:51:27.239Z,13.83
2022-11-05T14:54:03.806Z,13.77
2022-11-05T14:56:45.814Z,13.75
2022-11-05T14:59:31.813Z,13.70
2022-11-05T15:02:16.086Z,13.66
2022-11-05T15:04:48.137Z,13.60
2022-11-05T15:07:22.541Z,13.54
2022-11-05T15:09:54.186Z,13.50
2022-11-05T15:12:25.843Z,13.48
2022-11-05T15:14:55.148Z,13.43
2022-11-05T15:17:58.443Z,13.41
2022-11-05T15:20:40.115Z,13.40
2022-11-05T15:23:11.895Z,13.37
2022-11-05T15:25:55.526Z,13.33
2022-11-05T15:28:38.137Z,13.29
2022-11-05T15:31:12.355Z,13.25
2022-11-05T15:33:41.550Z,13.24
2022-11-05T15:36:11.775Z,13.25
2022-11-05T15:38:45.451Z,13.22
2022-11-05T15:41:32.383Z,13.20
2022-11-05T15:44:02.520Z,13.15
2022-11-05T15:46:31.199Z,13.09
2022-11-05T15:49:03.356Z,13.05
2022-11-05T15:51:31.733Z,13.06
2022-11-05T15:54:24.393Z,13.04
2022-11-05T15:56:57.475Z,13.01
2022-11-05T15:59:26.669Z,12.96
2022-11-05T16:02:03.540Z,12.93
2022-11-05T16:04:34.792Z,12.89
2022-11-05T16:07:11.566Z,12.85
2022-11-05T16:09:41.892Z,12.81
2022-11-05T16:12:13.543Z,12.76
2022-11-05T16:14:42.434Z,12.74
2022-11-05T16:17:21.873Z,12.71
2022-11-05T16:19:51.073Z,12.65
2022-11-05T16:22:19.444Z,12.61
2022-11-05T16:24:48.235Z,12.56
2022-11-05T16:27:20.649Z,12.53
2022-11-05T16:29:54.103Z,12.48
2022-11-05T16:32:30.685Z,12.41
2022-11-05T16:35:01.202Z,12.35
2022-11-05T16:37:31.431Z,12.30
2022-11-05T16:40:00.204Z,12.25
2022-11-05T16:42:36.681Z,12.22
2022-11-05T16:45:05.472Z,12.21
2022-11-05T16:47:34.371Z,12.20
2022-11-05T16:50:09.804Z,12.19
2022-11-05T16:52:38.287Z,12.18
2022-11-05T16:55:06.870Z,12.16
2022-11-05T16:57:35.248Z,12.11
2022-11-05T17:00:04.961Z,12.08
2022-11-05T17:02:33.638Z,12.04
2022-11-05T17:05:02.429Z,12.03
2022-11-05T17:07:31.014Z,12.01
2022-11-05T17:09:59.390Z,11.97
2022-11-05T17:12:27.773Z,11.95
2022-11-05T17:14:56.043Z,11.92
2022-11-05T17:17:24.626Z,11.87
2022-11-05T17:19:53.008Z,11.81
2022-11-05T17:22:21.383Z,11.75
2022-11-05T17:24:49.763Z,11.70
2022-11-05T17:27:18.243Z,11.66
2022-11-05T17:29:47.341Z,11.62
2022-11-05T17:32:15.614Z,11.58
2022-11-05T17:34:43.993Z,11.55
2022-11-05T17:37:12.375Z,11.51
2022-11-05T17:39:40.868Z,11.49
2022-11-05T17:42:09.124Z,11.49
2022-11-05T17:44:38.123Z,11.49
2022-11-05T17:47:06.502Z,11.49
2022-11-05T17:49:34.884Z,11.45
2022-11-05T17:52:03.358Z,11.40
2022-11-05T17:54:31.732Z,11.38
2022-11-05T17:57:00.215Z,11.33
2022-11-05T17:59:28.696Z,11.30
2022-11-05T18:01:57.837Z,11.27
2022-11-05T18:04:26.480Z,11.23
2022-11-05T18:06:55.064Z,11.18
2022-11-05T18:09:23.441Z,11.14
2022-11-05T18:11:51.920Z,11.13
2022-11-05T18:14:24.004Z,11.10
2022-11-05T18:16:55.453Z,11.07
2022-11-05T18:19:23.913Z,10.97
2022-11-05T18:21:52.295Z,10.77
2022-11-05T18:24:20.673Z,10.65
2022-11-05T18:26:49.463Z,10.53
2022-11-05T18:29:17.836Z,10.37
2022-11-05T18:31:46.175Z,10.28
2022-11-05T18:34:14.493Z,10.10
2022-11-05T18:36:43.893Z,9.97
2022-11-05T18:39:12.887Z,9.91
2022-11-05T18:41:41.366Z,9.89
2022-11-05T18:44:10.260Z,9.89
2022-11-05T18:49:27.699Z,9.93
2022-11-05T18:51:55.977Z,9.94
2022-11-05T18:54:24.456Z,9.96
2022-11-05T18:56:52.837Z,9.99
2022-11-05T18:59:38.999Z,10.02
2022-11-05T19:02:09.373Z,10.06
2022-11-05T19:04:38.141Z,10.10
2022-11-05T19:07:07.341Z,10.15
2022-11-05T19:09:36.650Z,10.21
2022-11-05T19:12:05.735Z,10.25
2022-11-05T19:14:34.730Z,10.27
2022-11-05T19:17:03.412Z,10.31
2022-11-05T19:19:32.098Z,10.32
2022-11-05T19:22:00.477Z,10.35
2022-11-05T19:24:28.958Z,10.36
2022-11-05T19:26:57.543Z,10.39
2022-11-05T19:29:25.920Z,10.40
2022-11-05T19:31:54.709Z,10.42
2022-11-05T19:34:22.981Z,10.42
2022-11-05T19:36:51.362Z,10.43
2022-11-05T19:39:19.844Z,10.45
2022-11-05T19:41:49.245Z,10.45
2022-11-05T19:44:17.728Z,10.45
2022-11-05T19:46:46.205Z,10.44
2022-11-05T19:49:14.591Z,10.44
2022-11-05T19:51:42.970Z,10.41
2022-11-05T19:54:11.548Z,10.40
2022-11-05T19:56:40.128Z,10.38
2022-11-05T19:59:08.982Z,10.36
2022-11-05T20:01:37.540Z,10.38
2022-11-05T20:04:06.270Z,10.37
2022-11-05T20:06:38.052Z,10.30
2022-11-05T20:09:21.635Z,10.25
2022-11-05T20:11:53.544Z,10.22
2022-11-05T20:14:23.155Z,10.19
2022-11-05T20:16:51.838Z,10.18
2022-11-05T20:19:21.345Z,10.15
2022-11-05T20:21:49.737Z,10.13
2022-11-05T20:24:24.271Z,10.09
2022-11-05T20:26:54.667Z,10.04
2022-11-05T20:29:23.760Z,10.00
2022-11-05T20:31:52.972Z,9.98
2022-11-05T20:34:21.335Z,9.95
2022-11-05T20:36:49.724Z,9.92
2022-11-05T20:39:18.607Z,9.90
2022-11-05T20:41:47.599Z,9.87
2022-11-05T20:44:16.181Z,9.87
2022-11-05T20:46:44.559Z,9.88
2022-11-05T20:49:12.965Z,9.91
2022-11-05T20:51:41.929Z,9.94
2022-11-05T20:54:10.517Z,9.98
2022-11-05T20:56:39.200Z,10.00
2022-11-05T20:59:07.783Z,10.02
2022-11-05T21:01:36.260Z,10.06
2022-11-05T21:04:05.573Z,10.08
2022-11-05T21:06:35.289Z,10.10
2022-11-05T21:09:04.579Z,10.12
2022-11-05T21:11:52.922Z,10.14
2022-11-05T21:14:21.399Z,10.16
2022-11-05T21:16:50.083Z,10.19
2022-11-05T21:19:18.361Z,10.20
2022-11-05T21:21:48.073Z,10.22
2022-11-05T21:24:16.554Z,10.22
2022-11-05T21:26:45.033Z,10.22
2022-11-05T21:29:13.515Z,10.20
2022-11-05T21:31:42.309Z,10.18
2022-11-05T21:34:11.109Z,10.13
2022-11-05T21:36:40.602Z,10.09
2022-11-05T21:39:13.219Z,10.04
2022-11-05T21:41:42.985Z,10.00
2022-11-05T21:44:11.667Z,9.95
2022-11-05T21:46:40.064Z,9.89
2022-11-05T21:49:08.626Z,9.84
2022-11-05T21:51:55.746Z,9.77
2022-11-05T21:54:43.275Z,9.68
2022-11-05T21:57:34.383Z,9.58
2022-11-05T22:00:06.049Z,9.48
2022-11-05T22:02:34.911Z,9.40
2022-11-05T22:05:04.126Z,9.34
2022-11-05T22:07:34.251Z,9.27
2022-11-05T22:10:03.957Z,9.20
2022-11-05T22:12:32.747Z,9.12
2022-11-05T22:15:01.224Z,9.07
2022-11-05T22:17:29.812Z,9.03
2022-11-05T22:19:58.729Z,8.97
2022-11-05T22:22:27.385Z,8.88
2022-11-05T22:24:55.965Z,8.80
2022-11-05T22:27:24.346Z,8.73
2022-11-05T22:29:52.737Z,8.66
2022-11-05T22:32:21.624Z,8.59
2022-11-05T22:34:50.098Z,8.53
2022-11-05T22:37:18.786Z,8.48
2022-11-05T22:39:48.948Z,8.45
2022-11-05T22:42:17.698Z,8.41
2022-11-05T22:44:46.376Z,8.37
2022-11-05T22:47:15.477Z,8.32
2022-11-05T22:49:44.263Z,8.28
2022-11-05T22:52:13.865Z,8.25
2022-11-05T22:54:42.449Z,8.24
2022-11-05T22:57:11.027Z,8.22
2022-11-05T22:59:39.515Z,8.19
2022-11-05T23:02:10.201Z,8.16
2022-11-05T23:04:39.667Z,8.15
2022-11-05T23:07:29.740Z,8.13
2022-11-05T23:10:17.169Z,8.13
2022-11-05T23:12:46.158Z,8.12
2022-11-05T23:15:34.709Z,8.10
2022-11-05T23:18:22.136Z,8.12
2022-11-05T23:21:10.994Z,8.13
2022-11-05T23:24:16.128Z,8.12
2022-11-05T23:26:50.557Z,8.08
2022-11-05T23:29:20.155Z,8.06
2022-11-05T23:32:07.478Z,8.03
2022-11-05T23:34:36.473Z,8.00
2022-11-05T23:37:24.107Z,7.99
2022-11-05T23:39:52.840Z,7.96
2022-11-05T23:42:40.311Z,7.93
2022-11-05T23:45:28.842Z,7.93
2022-11-05T23:48:17.830Z,7.91
2022-11-05T23:50:56.446Z,7.88
2022-11-05T23:53:27.102Z,7.83
2022-11-05T23:56:03.336Z,7.80
2022-11-05T23:58:32.527Z,7.77
